Neosho Falls, Kansas
Current Conditions -  °F | °C
As of 5:29 AM on Thursday 18 Dec 2014 (Local Time) from KCNU Reporting Station
Light Snow Light Snow  
Wind Chill: -5°   Ceiling: 2900
Heat Index: -1°   Visibility: 2mi
Dew Point: -1°   Wind: 8mph
Humidity: 96%   Direction: 80°E
Pressure: 30.16"   Gusts: NA
Location:  38.01°N, 95.56°W
Report Text: KCNU 181129Z AUTO 08007KT 2SM -SN BR FEW004 OVC029 M01/M01 A3016 RMK AO2 P0000 T10061011 $
Loading
Personal Weather Stations






























Interactive Weather Map New forecast layout! Learn more

10-Day Weather Forecast

Advertisements
Track Severe Weather on mobile